< < Back
Terminal Aerodrome Forecast


Current Version              Previous Versions:   1  2  3  4  5  6  7  8  9  

Terminal Aerodrome Forecast

165
FTUS44 KBMX 080535
TAFTCL
TAF
KTCL 080535Z 0806/0906 24005KT P6SM SCT150
     FM081200 25006KT P6SM BKN050 BKN130
     FM081500 28013G23KT P6SM BKN050
     FM090100 30009KT P6SM BKN035=

Latest METAR

344
SAUS70 KWBC 081700 RRD
MTRTCL
METAR KTCL 081653Z 31015G21KT 10SM FEW060 10/M05 A2994 RMK AO2 SLP138
T01001050


USA.gov is the U.S. government's official web portal to all federal, state and local government web resources and services.